Time;durP1;ratioP1;P1;durP2;ratioP2;P2;SDS_P1;SDS_P2;PMS_P1;PMS_P2;Temp;Humidity;BMP_temperature;BMP_pressure;BME280_temperature;BME280_humidity;BME280_pressure;Samples;Min_cycle;Max_cycle;Signal;HPM_P1;HPM_P2
2024/01/02 00:02:22;;;;;;;;;5.00;5.00;;;;;21.39;50.53;99914.77;109939;1250;20715;-29
2024/01/02 00:04:49;;;;;;;;;5.00;5.00;;;;;21.37;50.57;99913.55;109931;1253;17870;-30
2024/01/02 00:07:17;;;;;;;;;4.00;4.00;;;;;21.37;50.55;99913.87;109936;1266;18564;-30
2024/01/02 00:09:44;;;;;;;;;5.00;5.00;;;;;21.38;50.23;99912.11;109944;1250;21950;-30
2024/01/02 00:12:11;;;;;;;;;4.00;4.00;;;;;21.38;50.26;99913.05;109972;1260;19201;-30
2024/01/02 00:14:39;;;;;;;;;4.00;4.00;;;;;21.38;50.49;99915.54;109542;1250;572252;-31
2024/01/02 00:17:06;;;;;;;;;5.00;4.00;;;;;21.37;50.27;99914.91;109959;1258;19574;-30
2024/01/02 00:19:33;;;;;;;;;4.00;4.00;;;;;21.37;50.61;99915.27;109966;1251;19350;-30
2024/01/02 00:22:01;;;;;;;;;7.00;7.00;;;;;21.37;50.60;99915.94;109965;1266;18423;-29
2024/01/02 00:24:28;;;;;;;;;4.00;4.00;;;;;21.39;50.49;99916.23;109973;1251;19821;-29
2024/01/02 00:26:55;;;;;;;;;5.00;5.00;;;;;21.37;50.39;99913.70;109929;1266;19080;-30
2024/01/02 00:29:23;;;;;;;;;5.00;5.00;;;;;21.38;50.29;99913.27;109924;1251;20147;-30
2024/01/02 00:31:50;;;;;;;;;4.00;4.00;;;;;21.37;50.58;99910.44;109947;1251;18461;-30
2024/01/02 00:34:17;;;;;;;;;7.00;5.00;;;;;21.37;50.40;99913.55;109944;1259;19206;-30
2024/01/02 00:36:45;;;;;;;;;5.00;4.00;;;;;21.36;50.29;99915.64;109935;1250;20053;-30
2024/01/02 00:39:12;;;;;;;;;5.00;4.00;;;;;21.34;50.21;99910.04;109951;1260;21862;-30
2024/01/02 00:41:39;;;;;;;;;4.00;4.00;;;;;21.36;50.22;99908.11;109956;1251;19334;-30
2024/01/02 00:44:07;;;;;;;;;5.00;4.00;;;;;21.36;50.37;99914.10;109963;1251;19643;-30
2024/01/02 00:46:34;;;;;;;;;5.00;5.00;;;;;21.36;50.58;99912.57;109953;1266;21471;-30
2024/01/02 00:49:01;;;;;;;;;4.50;4.50;;;;;21.34;50.27;99910.75;109954;1251;19189;-29
2024/01/02 00:51:29;;;;;;;;;2.00;2.00;;;;;21.34;50.39;99910.04;109942;1259;21701;-29
2024/01/02 00:53:58;;;;;;;;;4.00;4.00;;;;;21.35;50.18;99911.55;109968;1251;19585;-30
2024/01/02 00:56:26;;;;;;;;;5.00;5.00;;;;;21.35;50.23;99912.16;109941;1250;19485;-30
2024/01/02 00:58:53;;;;;;;;;4.00;4.00;;;;;21.35;50.39;99915.52;109981;1251;19986;-30
2024/01/02 01:01:20;;;;;;;;;5.00;5.00;;;;;21.35;50.44;99916.40;110024;1251;19674;-30
2024/01/02 01:03:48;;;;;;;;;4.50;4.50;;;;;21.33;50.37;99917.95;110005;1259;20363;-31
2024/01/02 01:06:15;;;;;;;;;4.67;4.67;;;;;21.34;50.31;99916.38;110012;1250;21693;-30
2024/01/02 01:08:42;;;;;;;;;4.33;4.00;;;;;21.34;50.42;99917.89;109987;1266;19499;-31
2024/01/02 01:11:10;;;;;;;;;;;;;;;21.34;50.19;99920.67;109963;1266;18025;-31
2024/01/02 01:13:37;;;;;;;;;6.00;4.00;;;;;21.33;50.37;99916.20;109942;1252;19987;-30
2024/01/02 01:16:04;;;;;;;;;5.00;5.00;;;;;21.33;50.05;99917.84;109978;1260;19219;-30
2024/01/02 01:18:31;;;;;;;;;4.00;4.00;;;;;21.33;50.23;99914.30;109962;1250;22086;-30
2024/01/02 01:20:59;;;;;;;;;7.00;5.00;;;;;21.33;50.11;99912.84;109942;1266;18551;-30
2024/01/02 01:23:28;;;;;;;;;4.00;4.00;;;;;21.33;50.37;99912.07;109903;1260;19478;-30
2024/01/02 01:25:55;;;;;;;;;5.00;4.00;;;;;21.33;50.16;99911.30;109961;1266;17896;-30
2024/01/02 01:28:22;;;;;;;;;2.67;2.67;;;;;21.34;49.99;99907.27;109989;1260;19553;-30
2024/01/02 01:30:50;;;;;;;;;3.33;3.33;;;;;21.34;49.96;99909.88;109961;1266;18183;-31
2024/01/02 01:33:17;;;;;;;;;5.00;5.00;;;;;21.34;50.10;99909.77;109950;1250;20488;-31
2024/01/02 01:35:44;;;;;;;;;5.00;4.00;;;;;21.33;50.26;99908.96;109960;1260;19884;-30
2024/01/02 01:38:12;;;;;;;;;4.50;4.00;;;;;21.32;50.11;99909.30;109932;1251;19583;-30
2024/01/02 01:40:39;;;;;;;;;4.00;2.00;;;;;21.33;50.19;99909.40;109947;1251;19654;-30
2024/01/02 01:43:06;;;;;;;;;4.00;2.00;;;;;21.33;50.18;99908.86;109949;1266;22056;-31
2024/01/02 01:45:34;;;;;;;;;4.50;4.00;;;;;21.32;50.32;99908.43;109995;1266;18114;-30
2024/01/02 01:48:06;;;;;;;;;4.00;4.00;;;;;21.33;49.96;99900.84;109985;1250;19619;-31
2024/01/02 01:50:33;;;;;;;;;4.00;4.00;;;;;21.33;50.39;99900.69;110057;1266;18544;-31
2024/01/02 01:53:01;;;;;;;;;5.00;5.00;;;;;21.32;50.03;99900.96;109971;1260;19430;-30
2024/01/02 01:55:28;;;;;;;;;4.00;4.00;;;;;21.33;50.36;99901.44;109971;1251;22814;-30
2024/01/02 01:57:56;;;;;;;;;4.00;4.00;;;;;21.33;50.36;99903.25;109971;1266;18584;-30
2024/01/02 02:00:23;;;;;;;;;7.00;4.00;;;;;21.33;50.37;99907.77;109929;1266;20859;-30
2024/01/02 02:02:50;;;;;;;;;4.00;4.00;;;;;21.32;50.09;99906.41;109968;1259;19283;-30
2024/01/02 02:05:18;;;;;;;;;4.00;4.00;;;;;21.33;50.16;99906.67;109976;1266;19857;-31
2024/01/02 02:07:45;;;;;;;;;2.67;2.67;;;;;21.32;50.10;99906.31;109972;1250;22622;-31
2024/01/02 02:10:12;;;;;;;;;4.67;4.33;;;;;21.31;50.00;99907.68;110013;1260;19507;-31
2024/01/02 02:12:39;;;;;;;;;4.00;2.00;;;;;21.32;50.07;99913.84;109973;1251;20070;-30
2024/01/02 02:15:07;;;;;;;;;4.00;4.00;;;;;21.31;50.33;99912.48;109967;1251;19613;-30
2024/01/02 02:17:35;;;;;;;;;6.00;5.00;;;;;21.31;50.15;99914.74;109960;1250;19351;-30
2024/01/02 02:20:02;;;;;;;;;4.00;4.00;;;;;21.31;50.22;99909.05;109981;1250;18872;-30
2024/01/02 02:22:29;;;;;;;;;4.00;4.00;;;;;21.29;50.16;99911.69;109968;1250;18183;-31
2024/01/02 02:24:57;;;;;;;;;5.00;4.00;;;;;21.30;50.03;99910.80;109957;1260;19224;-30
2024/01/02 02:27:26;;;;;;;;;4.00;4.00;;;;;21.30;50.02;99910.25;109948;1250;19992;-30
2024/01/02 02:29:54;;;;;;;;;4.00;4.00;;;;;21.30;50.49;99914.00;109935;1266;19522;-30
2024/01/02 02:32:21;;;;;;;;;7.00;5.00;;;;;21.30;50.11;99910.11;109939;1250;19402;-30
2024/01/02 02:34:48;;;;;;;;;2.00;2.00;;;;;21.28;50.08;99906.75;109975;1250;22836;-30
2024/01/02 02:37:16;;;;;;;;;2.00;2.00;;;;;21.28;50.19;99916.55;109937;1251;18502;-30
2024/01/02 02:39:43;;;;;;;;;4.00;4.00;;;;;21.30;50.21;99912.99;109947;1250;19069;-30
2024/01/02 02:42:10;;;;;;;;;6.00;5.00;;;;;21.30;49.99;99911.07;109940;1266;18819;-30
2024/01/02 02:44:38;;;;;;;;;2.00;2.00;;;;;21.31;49.98;99910.20;109971;1259;19176;-30
2024/01/02 02:47:05;;;;;;;;;2.00;2.00;;;;;21.30;50.13;99908.98;109947;1251;19383;-31
2024/01/02 02:49:32;;;;;;;;;4.00;4.00;;;;;21.31;50.12;99913.09;109955;1266;18675;-30
2024/01/02 02:52:00;;;;;;;;;3.00;3.00;;;;;21.29;49.94;99910.48;109920;1266;18129;-30
2024/01/02 02:54:27;;;;;;;;;2.00;2.00;;;;;21.28;50.33;99908.59;109949;1260;20308;-31
2024/01/02 02:56:56;;;;;;;;;5.00;4.00;;;;;21.28;50.29;99907.62;109952;1266;20955;-30
2024/01/02 02:59:23;;;;;;;;;4.00;2.00;;;;;21.29;50.07;99905.42;109941;1251;19594;-31
2024/01/02 03:01:50;;;;;;;;;4.00;4.00;;;;;21.28;50.00;99902.76;109928;1254;19077;-31
2024/01/02 03:04:17;;;;;;;;;4.50;4.50;;;;;21.28;49.98;99902.27;109939;1266;18834;-30
2024/01/02 03:06:45;;;;;;;;;2.00;2.00;;;;;21.30;49.99;99906.71;109927;1250;21157;-30
2024/01/02 03:09:12;;;;;;;;;2.00;2.00;;;;;21.28;49.82;99901.64;109916;1254;21762;-31
2024/01/02 03:11:40;;;;;;;;;4.00;4.00;;;;;21.29;50.02;99902.92;109934;1266;20016;-30
2024/01/02 03:14:07;;;;;;;;;4.00;2.00;;;;;21.28;49.88;99900.80;109943;1250;18137;-31
2024/01/02 03:16:34;;;;;;;;;5.00;4.00;;;;;21.28;50.04;99899.45;109951;1250;20634;-31
2024/01/02 03:19:02;;;;;;;;;2.00;2.00;;;;;21.29;50.01;99898.02;109922;1251;22153;-30
2024/01/02 03:21:29;;;;;;;;;2.00;2.00;;;;;21.28;49.85;99894.65;109966;1251;19603;-31
2024/01/02 03:23:56;;;;;;;;;2.00;2.00;;;;;21.28;49.86;99895.52;109956;1266;19422;-30
2024/01/02 03:26:24;;;;;;;;;4.00;4.00;;;;;21.28;49.99;99895.58;109924;1251;20004;-31
2024/01/02 03:28:51;;;;;;;;;7.00;5.67;;;;;21.28;49.85;99897.66;109936;1266;19613;-30
2024/01/02 03:31:18;;;;;;;;;2.00;2.00;;;;;21.28;49.92;99896.88;109927;1259;17867;-30
2024/01/02 03:33:47;;;;;;;;;1.00;1.00;;;;;21.29;50.04;99894.05;109938;1250;18859;-30
2024/01/02 03:36:14;;;;;;;;;3.00;2.00;;;;;21.27;49.75;99893.64;109946;1266;18524;-31
2024/01/02 03:38:41;;;;;;;;;2.00;2.00;;;;;21.27;49.92;99890.58;109933;1266;19084;-31
2024/01/02 03:41:09;;;;;;;;;2.00;2.00;;;;;21.27;49.94;99891.84;109945;1251;20013;-30
2024/01/02 03:43:36;;;;;;;;;2.00;2.00;;;;;21.27;49.90;99895.04;109940;1260;19746;-30
2024/01/02 03:46:03;;;;;;;;;2.00;2.00;;;;;21.27;49.87;99892.21;109951;1259;22883;-30
2024/01/02 03:48:31;;;;;;;;;3.00;2.00;;;;;21.27;49.99;99897.66;109991;1266;19932;-31
2024/01/02 03:51:00;;;;;;;;;2.00;2.00;;;;;21.27;50.16;99901.41;109953;1251;20188;-29
2024/01/02 03:53:28;;;;;;;;;2.00;2.00;;;;;21.27;49.94;99900.83;109995;1266;17883;-30
2024/01/02 03:55:55;;;;;;;;;4.00;4.00;;;;;21.26;49.90;99900.83;109946;1260;18577;-30
2024/01/02 03:58:22;;;;;;;;;4.50;3.00;;;;;21.26;49.82;99897.62;109989;1251;19645;-30
2024/01/02 04:00:50;;;;;;;;;2.00;2.00;;;;;21.26;49.88;99896.11;109966;1250;17943;-30
2024/01/02 04:03:17;;;;;;;;;2.00;2.00;;;;;21.25;49.70;99898.67;109938;1266;18473;-31
2024/01/02 04:05:45;;;;;;;;;2.00;2.00;;;;;21.27;49.60;99901.15;109957;1250;19373;-30
2024/01/02 04:08:12;;;;;;;;;2.00;2.00;;;;;21.25;49.60;99900.42;109933;1266;17876;-30
2024/01/02 04:10:40;;;;;;;;;2.00;2.00;;;;;21.25;49.70;99906.52;109932;1251;20121;-30
2024/01/02 04:13:09;;;;;;;;;4.00;4.00;;;;;21.26;49.50;99907.81;109995;1250;19118;-31
2024/01/02 04:15:36;;;;;;;;;2.00;2.00;;;;;21.26;49.78;99912.39;109947;1251;19389;-31
2024/01/02 04:18:04;;;;;;;;;4.00;3.00;;;;;21.26;49.78;99908.41;109967;1250;20413;-31
2024/01/02 04:20:31;;;;;;;;;4.00;4.00;;;;;21.25;49.50;99914.75;109993;1250;18947;-31
2024/01/02 04:22:58;;;;;;;;;2.00;2.00;;;;;21.25;49.63;99909.17;109989;1266;17950;-31
2024/01/02 04:25:26;;;;;;;;;2.00;2.00;;;;;21.27;50.01;99908.78;109985;1250;21433;-31
2024/01/02 04:27:53;;;;;;;;;2.00;2.00;;;;;21.27;49.78;99906.05;109929;1266;18908;-30
2024/01/02 04:30:20;;;;;;;;;2.00;2.00;;;;;21.26;49.96;99907.20;109907;1250;22644;-31
2024/01/02 04:32:47;;;;;;;;;3.00;3.00;;;;;21.26;49.96;99904.92;109953;1250;18620;-30
2024/01/02 04:35:15;;;;;;;;;2.00;2.00;;;;;21.25;50.03;99901.55;109914;1252;19508;-30
2024/01/02 04:37:42;;;;;;;;;2.00;2.00;;;;;21.25;49.73;99901.39;109962;1266;19417;-30
2024/01/02 04:40:10;;;;;;;;;2.00;2.00;;;;;21.26;49.71;99899.53;109924;1260;18975;-30
2024/01/02 04:42:37;;;;;;;;;2.00;2.00;;;;;21.25;49.88;99901.55;109949;1266;19546;-31
2024/01/02 04:45:04;;;;;;;;;3.00;2.00;;;;;21.25;49.86;99900.75;109910;1266;19551;-30
2024/01/02 04:47:32;;;;;;;;;2.00;2.00;;;;;21.25;49.95;99899.81;109943;1253;20060;-30
2024/01/02 04:50:00;;;;;;;;;2.00;2.00;;;;;21.26;50.05;99901.11;109971;1250;18162;-30
2024/01/02 04:52:27;;;;;;;;;1.50;1.50;;;;;21.25;49.70;99899.27;109985;1266;17903;-30
2024/01/02 04:54:55;;;;;;;;;3.00;3.00;;;;;21.26;49.93;99900.52;109984;1253;20015;-31
2024/01/02 04:57:22;;;;;;;;;2.00;2.00;;;;;21.25;49.99;99899.48;110005;1250;19707;-31
2024/01/02 04:59:49;;;;;;;;;2.00;2.00;;;;;21.25;49.77;99899.38;109998;1253;19313;-31
2024/01/02 05:02:22;;;;;;;;;2.00;2.00;;;;;21.25;49.91;99899.39;109901;1260;19896;-31
2024/01/02 05:04:50;;;;;;;;;2.00;2.00;;;;;21.24;49.92;99899.61;109898;1260;19573;-30
2024/01/02 05:07:17;;;;;;;;;2.00;2.00;;;;;21.24;49.89;99899.88;109804;1266;21925;-31
2024/01/02 05:09:44;;;;;;;;;3.00;3.00;;;;;21.25;49.94;99900.42;109926;1266;18684;-30
2024/01/02 05:12:11;;;;;;;;;4.00;4.00;;;;;21.25;49.83;99904.39;109948;1260;19454;-31
2024/01/02 05:14:39;;;;;;;;;2.00;2.00;;;;;21.24;49.83;99907.23;109906;1259;19141;-31
2024/01/02 05:17:06;;;;;;;;;5.00;2.00;;;;;21.24;49.74;99908.92;109885;1251;20149;-30
2024/01/02 05:19:34;;;;;;;;;2.00;2.00;;;;;21.24;49.71;99906.97;109843;1251;19546;-30
2024/01/02 05:22:01;;;;;;;;;2.00;2.00;;;;;21.24;49.76;99904.57;109949;1250;17916;-31
2024/01/02 05:24:28;;;;;;;;;2.00;2.00;;;;;21.24;49.63;99907.90;109929;1266;20017;-30
2024/01/02 05:26:55;;;;;;;;;10.00;4.00;;;;;21.24;50.09;99907.52;109941;1266;21929;-30
2024/01/02 05:29:23;;;;;;;;;2.00;2.00;;;;;21.24;49.70;99908.66;109918;1266;22044;-30
2024/01/02 05:31:50;;;;;;;;;2.00;2.00;;;;;21.24;49.74;99907.52;109995;1266;18549;-30
2024/01/02 05:34:17;;;;;;;;;2.00;2.00;;;;;21.24;50.00;99908.83;109975;1266;18150;-30
2024/01/02 05:36:46;;;;;;;;;2.00;2.00;;;;;21.24;49.92;99911.05;109968;1251;19783;-31
2024/01/02 05:39:13;;;;;;;;;5.00;4.00;;;;;21.24;49.76;99908.88;109957;1250;19987;-30
2024/01/02 05:41:40;;;;;;;;;2.00;2.00;;;;;21.24;49.88;99904.02;109951;1251;19629;-30
2024/01/02 05:44:08;;;;;;;;;2.00;2.00;;;;;21.24;49.76;99905.11;109894;1266;21939;-30
2024/01/02 05:46:35;;;;;;;;;2.00;2.00;;;;;21.24;49.85;99907.41;109961;1260;20020;-30
2024/01/02 05:49:02;;;;;;;;;2.00;2.00;;;;;21.23;49.66;99914.88;109941;1266;22222;-30
2024/01/02 05:51:30;;;;;;;;;2.00;2.00;;;;;21.24;49.67;99918.46;109956;1260;19396;-30
2024/01/02 05:53:57;;;;;;;;;4.00;4.00;;;;;21.24;49.51;99919.02;109938;1251;18653;-30
2024/01/02 05:56:24;;;;;;;;;4.00;4.00;;;;;21.23;49.52;99917.66;109976;1250;19592;-31
2024/01/02 05:58:52;;;;;;;;;7.00;7.00;;;;;21.23;49.78;99916.57;109970;1250;19373;-30
2024/01/02 06:01:19;;;;;;;;;4.00;3.00;;;;;21.23;49.69;99915.21;109935;1260;20349;-31
2024/01/02 06:03:46;;;;;;;;;4.00;4.00;;;;;21.23;49.75;99911.22;109958;1250;19951;-30
2024/01/02 06:06:14;;;;;;;;;4.00;4.00;;;;;21.23;49.70;99902.40;109929;1251;21424;-30
2024/01/02 06:08:41;;;;;;;;;4.00;4.00;;;;;21.24;49.54;99905.34;109928;1250;20079;-31
2024/01/02 06:11:09;;;;;;;;;2.00;2.00;;;;;21.24;49.74;99905.88;109953;1250;19817;-30
2024/01/02 06:13:36;;;;;;;;;7.00;5.00;;;;;21.24;49.83;99903.04;109940;1250;19401;-31
2024/01/02 06:16:04;;;;;;;;;4.50;4.00;;;;;21.24;49.95;99903.59;109913;1250;19945;-30
2024/01/02 06:18:31;;;;;;;;;4.00;4.00;;;;;21.24;49.90;99900.48;109963;1260;19492;-30
2024/01/02 06:21:00;;;;;;;;;5.00;4.00;;;;;21.24;49.88;99902.23;109952;1266;22178;-30
2024/01/02 06:23:28;;;;;;;;;4.00;4.00;;;;;21.25;49.83;99907.50;109928;1250;20047;-31
2024/01/02 06:25:55;;;;;;;;;2.00;2.00;;;;;21.24;49.78;99911.11;109938;1250;21356;-30
2024/01/02 06:28:22;;;;;;;;;4.00;4.00;;;;;21.25;49.87;99910.98;109953;1259;22469;-30
2024/01/02 06:30:50;;;;;;;;;4.00;4.00;;;;;21.25;49.91;99908.64;109955;1266;19114;-30
2024/01/02 06:33:17;;;;;;;;;4.67;4.00;;;;;21.24;49.69;99910.61;109931;1266;19488;-31
2024/01/02 06:35:44;;;;;;;;;2.00;2.00;;;;;21.24;50.01;99907.29;109960;1250;21346;-30
2024/01/02 06:38:12;;;;;;;;;2.00;2.00;;;;;21.24;49.96;99901.84;109894;1250;20198;-30
2024/01/02 06:40:39;;;;;;;;;4.00;4.00;;;;;21.28;49.70;99897.98;109836;1250;19599;-31
2024/01/02 06:43:07;;;;;;;;;4.00;4.00;;;;;21.34;49.62;99896.27;109965;1266;17875;-31
2024/01/02 06:45:34;;;;;;;;;4.00;4.00;;;;;21.39;49.65;99900.54;109938;1250;19879;-30
2024/01/02 06:48:01;;;;;;;;;4.00;4.00;;;;;21.48;49.51;99902.05;109932;1266;19184;-30
2024/01/02 06:50:29;;;;;;;;;4.00;4.00;;;;;21.52;49.79;99903.47;109961;1266;20769;-30
2024/01/02 06:52:56;;;;;;;;;8.00;7.00;;;;;21.51;50.38;99902.60;109947;1250;21823;-30
2024/01/02 06:55:23;;;;;;;;;5.00;4.00;;;;;21.43;50.74;99903.91;109963;1250;19466;-30
2024/01/02 06:57:50;;;;;;;;;5.00;5.00;;;;;21.50;50.42;99906.48;109989;1250;22566;-31
2024/01/02 07:00:18;;;;;;;;;4.33;4.00;;;;;21.52;50.63;99908.70;109969;1251;20002;-31
2024/01/02 07:02:45;;;;;;;;;5.00;5.00;;;;;21.50;50.76;99909.33;109917;1260;18176;-30
2024/01/02 07:05:12;;;;;;;;;5.00;5.00;;;;;21.44;50.90;99909.63;109946;1266;19346;-30
2024/01/02 07:07:40;;;;;;;;;7.00;5.00;;;;;21.47;50.78;99900.21;109903;1250;19945;-30
2024/01/02 07:10:07;;;;;;;;;4.00;4.00;;;;;21.50;50.84;99899.02;109955;1250;21571;-30
2024/01/02 07:12:34;;;;;;;;;4.00;4.00;;;;;21.50;50.86;99901.64;109938;1250;19364;-30
2024/01/02 07:15:02;;;;;;;;;5.00;4.00;;;;;21.47;50.62;99902.66;109938;1250;20029;-29
2024/01/02 07:17:30;;;;;;;;;6.00;6.00;;;;;21.52;50.48;99903.63;109925;1251;19849;-29
2024/01/02 07:19:58;;;;;;;;;5.00;5.00;;;;;21.63;49.38;99904.55;109933;1251;19367;-30
2024/01/02 07:22:26;;;;;;;;;5.67;5.00;;;;;21.65;48.73;99907.89;109953;1250;19966;-29
2024/01/02 07:24:53;;;;;;;;;7.00;7.00;;;;;21.63;47.98;99901.98;109920;1251;19539;-29
2024/01/02 07:27:21;;;;;;;;;5.00;5.00;;;;;21.61;47.44;99898.36;109977;1266;17943;-30
2024/01/02 07:29:48;;;;;;;;;4.50;4.50;;;;;21.60;46.97;99902.45;109965;1250;21445;-30
2024/01/02 07:32:15;;;;;;;;;7.00;5.00;;;;;21.59;47.16;99904.88;109952;1251;19575;-30
2024/01/02 07:34:43;;;;;;;;;5.00;5.00;;;;;21.62;47.19;99903.80;109962;1250;19349;-30
2024/01/02 07:37:11;;;;;;;;;7.00;5.00;;;;;21.53;47.53;99900.12;109898;1266;19923;-30
2024/01/02 07:39:38;;;;;;;;;8.00;7.00;;;;;21.55;47.39;99902.92;109946;1256;18224;-30
2024/01/02 07:42:08;;;;;;;;;7.00;7.00;;;;;21.51;46.71;99903.09;109900;1250;20825;-29
2024/01/02 07:44:36;;;;;;;;;7.00;7.00;;;;;21.53;46.70;99902.46;109947;1250;19874;-29
2024/01/02 07:47:03;;;;;;;;;7.00;5.00;;;;;21.44;46.61;99899.75;109939;1251;19102;-29
2024/01/02 07:49:31;;;;;;;;;5.00;5.00;;;;;21.42;47.15;99901.05;109961;1251;19322;-30
2024/01/02 07:51:58;;;;;;;;;7.00;7.00;;;;;21.53;46.73;99905.58;109970;1266;18937;-29
2024/01/02 07:54:25;;;;;;;;;7.00;7.00;;;;;21.54;46.23;99909.05;109974;1266;19726;-30
2024/01/02 07:56:52;;;;;;;;;7.50;7.50;;;;;21.54;45.49;99905.55;109980;1266;17896;-30
2024/01/02 07:59:23;;;;;;;;;7.00;7.00;;;;;21.53;45.62;99903.71;109963;1260;19850;-29
2024/01/02 08:01:51;;;;;;;;;7.00;7.00;;;;;21.51;45.42;99906.73;109945;1266;18123;-30
2024/01/02 08:04:18;;;;;;;;;6.00;5.00;;;;;21.40;46.17;99907.51;109944;1250;18880;-29
2024/01/02 08:06:45;;;;;;;;;5.00;5.00;;;;;21.43;45.95;99902.06;109963;1251;20041;-30
2024/01/02 08:09:14;;;;;;;;;5.00;5.00;;;;;21.38;46.33;99905.35;109944;1250;19684;-30
2024/01/02 08:11:41;;;;;;;;;7.50;5.00;;;;;21.35;46.72;99908.34;109934;1250;19221;-30
2024/01/02 08:14:09;;;;;;;;;5.00;5.00;;;;;21.35;46.80;99905.34;109968;1250;19946;-29
2024/01/02 08:16:36;;;;;;;;;5.00;4.00;;;;;21.32;47.15;99907.62;109964;1250;19694;-29
2024/01/02 08:19:03;;;;;;;;;4.50;4.50;;;;;21.29;47.13;99903.13;109908;1266;22031;-30
2024/01/02 08:21:31;;;;;;;;;6.00;6.00;;;;;21.28;47.22;99904.99;109951;1251;19991;-30
2024/01/02 08:23:58;;;;;;;;;5.00;5.00;;;;;21.28;47.44;99903.09;109924;1266;18203;-30
2024/01/02 08:26:25;;;;;;;;;5.00;5.00;;;;;21.32;47.18;99905.22;109968;1266;17898;-30
2024/01/02 08:28:53;;;;;;;;;4.00;4.00;;;;;21.37;46.96;99901.50;109949;1266;19083;-30
2024/01/02 08:31:20;;;;;;;;;5.00;5.00;;;;;21.43;47.38;99899.61;109928;1266;21434;-31
2024/01/02 08:33:48;;;;;;;;;5.00;5.00;;;;;21.60;47.13;99899.25;109937;1266;19232;-29
2024/01/02 08:36:16;;;;;;;;;5.00;4.00;;;;;21.62;47.26;99900.25;109965;1260;22855;-29
2024/01/02 08:38:44;;;;;;;;;4.00;4.00;;;;;21.50;48.10;99899.23;109952;1250;19616;-29
2024/01/02 08:41:11;;;;;;;;;5.00;4.00;;;;;21.42;48.26;99902.73;109964;1259;19385;-30
2024/01/02 08:43:38;;;;;;;;;6.33;6.33;;;;;21.46;48.37;99905.67;109933;1260;20005;-30
2024/01/02 08:46:06;;;;;;;;;5.00;4.00;;;;;21.47;48.43;99906.85;109969;1251;21171;-29
2024/01/02 08:48:34;;;;;;;;;2.00;2.00;;;;;21.50;48.66;99907.86;109928;1251;19330;-29
2024/01/02 08:51:01;;;;;;;;;4.00;4.00;;;;;21.60;48.79;99910.52;109922;1251;20040;-29
2024/01/02 08:53:30;;;;;;;;;5.00;4.00;;;;;21.53;48.77;99912.27;109957;1266;19517;-30
2024/01/02 08:55:58;;;;;;;;;4.00;4.00;;;;;21.55;48.92;99908.31;109957;1260;21867;-30
2024/01/02 08:58:25;;;;;;;;;4.00;4.00;;;;;21.52;48.74;99909.83;109941;1266;18435;-30
2024/01/02 09:00:53;;;;;;;;;4.00;4.00;;;;;21.45;48.96;99903.99;109936;1250;19489;-30
2024/01/02 09:03:20;;;;;;;;;4.00;4.00;;;;;21.43;49.30;99900.98;109983;1251;19426;-30
2024/01/02 09:05:48;;;;;;;;;4.50;4.00;;;;;21.48;49.23;99896.55;109996;1266;20178;-30
2024/01/02 09:08:16;;;;;;;;;5.00;4.00;;;;;21.43;49.49;99896.14;109964;1260;19699;-30
2024/01/02 09:10:44;;;;;;;;;4.00;4.00;;;;;21.40;49.38;99893.08;109952;1266;17980;-29
2024/01/02 09:13:12;;;;;;;;;4.00;4.00;;;;;21.40;49.51;99890.95;109708;1251;20014;-29
2024/01/02 09:15:40;;;;;;;;;2.00;2.00;;;;;21.44;49.52;99891.04;109683;1250;19611;-30
2024/01/02 09:18:07;;;;;;;;;4.00;4.00;;;;;21.47;49.49;99891.98;109661;1266;18064;-29
2024/01/02 09:20:35;;;;;;;;;21.00;18.00;;;;;21.46;49.64;99892.83;109617;1260;19833;-30
2024/01/02 09:23:03;;;;;;;;;95.00;69.00;;;;;21.42;49.68;99892.00;109660;1251;19603;-30
2024/01/02 09:25:30;;;;;;;;;145.00;115.00;;;;;21.40;49.98;99891.10;109651;1250;19494;-29
2024/01/02 09:27:58;;;;;;;;;133.50;111.00;;;;;21.47;49.77;99889.48;109594;1250;21080;-29
2024/01/02 09:30:25;;;;;;;;;131.00;99.00;;;;;21.39;49.82;99888.73;109574;1258;18889;-30
2024/01/02 09:32:52;;;;;;;;;200.00;151.00;;;;;21.42;50.09;99889.11;109601;1266;18670;-30
2024/01/02 09:35:20;;;;;;;;;167.00;124.33;;;;;21.56;49.31;99887.77;109635;1266;18585;-30
2024/01/02 09:37:47;;;;;;;;;155.50;116.00;;;;;21.55;49.39;99883.40;109668;1260;19343;-29
2024/01/02 09:40:15;;;;;;;;;114.00;94.00;;;;;21.51;49.40;99885.38;109938;1266;18575;-30
2024/01/02 09:42:42;;;;;;;;;130.50;95.00;;;;;21.41;49.58;99884.17;109868;1250;20053;-29
2024/01/02 09:45:10;;;;;;;;;111.00;87.00;;;;;21.51;49.15;99885.33;110025;1250;20363;-30
2024/01/02 09:47:37;;;;;;;;;108.00;78.00;;;;;21.57;49.24;99881.25;109962;1266;18497;-29
2024/01/02 09:50:04;;;;;;;;;102.00;71.00;;;;;21.58;49.21;99879.17;109984;1250;19795;-29
2024/01/02 09:52:32;;;;;;;;;88.00;66.50;;;;;21.54;49.41;99883.31;110011;1266;18926;-30
2024/01/02 09:54:59;;;;;;;;;84.50;64.00;;;;;21.55;49.89;99880.48;109952;1251;19620;-29
2024/01/02 09:57:27;;;;;;;;;70.50;56.00;;;;;21.56;49.75;99878.77;109944;1251;20195;-31
2024/01/02 09:59:55;;;;;;;;;71.00;52.00;;;;;21.52;50.47;99873.43;109965;1251;20002;-30
2024/01/02 10:02:22;;;;;;;;;66.33;51.00;;;;;21.54;50.76;99877.32;109917;1253;19528;-30
2024/01/02 10:04:50;;;;;;;;;71.00;51.00;;;;;21.52;51.09;99875.33;109802;1266;18590;-30
2024/01/02 10:07:17;;;;;;;;;54.00;44.00;;;;;21.53;51.10;99868.94;109959;1251;21461;-29
2024/01/02 10:09:44;;;;;;;;;47.00;37.00;;;;;21.52;51.40;99866.73;109949;1260;19610;-30
2024/01/02 10:12:12;;;;;;;;;38.00;34.00;;;;;21.51;51.28;99865.31;109966;1260;21861;-29
2024/01/02 10:14:39;;;;;;;;;44.00;36.50;;;;;21.50;51.25;99866.42;109937;1250;20126;-30
2024/01/02 10:17:06;;;;;;;;;40.00;31.00;;;;;21.52;51.69;99863.08;109929;1266;18137;-30
2024/01/02 10:19:33;;;;;;;;;38.50;33.00;;;;;21.51;51.65;99863.13;109964;1251;20157;-31
2024/01/02 10:22:01;;;;;;;;;33.50;27.50;;;;;21.57;51.12;99858.14;109968;1266;18530;-30
2024/01/02 10:24:28;;;;;;;;;26.00;21.00;;;;;21.63;50.78;99857.92;109950;1251;19524;-31
2024/01/02 10:26:56;;;;;;;;;29.00;24.00;;;;;21.63;51.22;99850.97;109969;1266;19105;-30
2024/01/02 10:29:24;;;;;;;;;25.00;22.00;;;;;21.63;50.91;99848.83;109946;1251;22009;-31
2024/01/02 10:31:51;;;;;;;;;25.00;22.00;;;;;21.55;51.42;99846.30;109915;1266;18183;-30
2024/01/02 10:34:19;;;;;;;;;25.00;24.00;;;;;21.48;51.74;99844.66;109941;1250;22538;-31
2024/01/02 10:36:46;;;;;;;;;23.00;21.00;;;;;21.49;51.76;99842.74;109959;1260;19475;-31
2024/01/02 10:39:14;;;;;;;;;27.00;22.00;;;;;21.61;51.20;99843.25;109931;1251;22019;-30
2024/01/02 10:41:41;;;;;;;;;22.00;20.00;;;;;21.63;50.99;99839.46;109908;1251;20029;-31
2024/01/02 10:44:09;;;;;;;;;15.00;14.00;;;;;21.69;50.55;99836.20;109984;1260;21064;-30
2024/01/02 10:46:36;;;;;;;;;21.00;17.00;;;;;21.76;50.45;99832.98;109926;1266;18575;-30
2024/01/02 10:49:04;;;;;;;;;16.00;15.00;;;;;21.82;50.41;99829.11;109938;1250;20005;-29
2024/01/02 10:51:31;;;;;;;;;19.33;17.00;;;;;21.76;50.32;99827.15;109913;1266;22230;-31
2024/01/02 10:53:58;;;;;;;;;17.00;14.00;;;;;21.76;50.45;99823.43;109962;1251;19597;-31
2024/01/02 10:56:26;;;;;;;;;18.50;14.50;;;;;21.61;50.91;99826.52;109979;1251;20024;-31
2024/01/02 10:58:53;;;;;;;;;18.00;15.00;;;;;21.60;50.97;99821.47;109921;1251;20873;-31
2024/01/02 11:01:22;;;;;;;;;11.00;10.33;;;;;21.60;50.90;99817.05;109857;1260;19655;-30
2024/01/02 11:03:50;;;;;;;;;17.00;12.00;;;;;21.62;50.58;99811.23;109880;1250;18556;-31
2024/01/02 11:06:17;;;;;;;;;15.00;15.00;;;;;21.63;50.75;99812.20;109919;1260;21072;-38
2024/01/02 11:08:45;;;;;;;;;15.00;14.00;;;;;21.68;50.42;99811.58;109825;1266;18133;-31
2024/01/02 11:11:12;;;;;;;;;18.00;14.00;;;;;21.58;50.62;99805.95;109920;1250;21255;-31
2024/01/02 11:13:39;;;;;;;;;21.33;17.33;;;;;21.53;50.52;99804.14;109955;1250;18569;-31
2024/01/02 11:16:06;;;;;;;;;18.00;17.00;;;;;21.45;50.70;99800.57;109899;1251;19616;-31
2024/01/02 11:18:34;;;;;;;;;17.00;14.00;;;;;21.48;50.98;99795.23;109947;1259;19722;-31
2024/01/02 11:21:02;;;;;;;;;15.00;12.00;;;;;21.48;50.53;99794.26;109942;1250;20019;-31
2024/01/02 11:23:29;;;;;;;;;18.50;15.00;;;;;21.45;51.03;99788.92;109986;1251;19640;-30